Time;durP1;ratioP1;P1;durP2;ratioP2;P2;SDS_P1;SDS_P2;PMS_P1;PMS_P2;Temp;Humidity;BMP_temperature;BMP_pressure;BME280_temperature;BME280_humidity;BME280_pressure;Samples;Min_cycle;Max_cycle;Signal;HPM_P1;HPM_P2
2022/08/05 00:00:19;;;;;;;3.97;1.58;;;30.50;57.40;;;;;;6336964;22;19995;-77
2022/08/05 00:02:46;;;;;;;1.98;1.40;;;30.50;57.60;;;;;;6337378;22;20055;-78
2022/08/05 00:05:11;;;;;;;1.70;1.40;;;30.50;57.90;;;;;;6337687;22;20305;-78
2022/08/05 00:07:37;;;;;;;2.30;1.33;;;30.50;58.00;;;;;;6336951;22;19998;-78
2022/08/05 00:10:04;;;;;;;2.67;1.60;;;30.50;57.80;;;;;;6309339;22;20015;-79
2022/08/05 00:12:30;;;;;;;3.83;1.60;;;30.50;58.00;;;;;;6337237;22;20034;-79
2022/08/05 00:14:55;;;;;;;2.78;1.60;;;30.50;58.00;;;;;;6337119;22;20021;-79
2022/08/05 00:17:21;;;;;;;1.73;1.48;;;30.50;57.90;;;;;;6336319;22;19999;-78
2022/08/05 00:19:47;;;;;;;1.48;1.20;;;30.50;58.10;;;;;;6336072;22;20027;-78
2022/08/05 00:22:12;;;;;;;4.57;1.50;;;30.50;58.20;;;;;;6337291;22;20002;-78
2022/08/05 00:24:39;;;;;;;3.47;1.60;;;30.50;58.60;;;;;;6337620;22;20007;-79
2022/08/05 00:27:05;;;;;;;1.83;1.40;;;30.40;58.50;;;;;;6337106;22;19999;-79
2022/08/05 00:29:30;;;;;;;1.92;1.25;;;30.40;58.60;;;;;;6336451;22;20003;-79
2022/08/05 00:31:56;;;;;;;2.60;1.65;;;30.40;58.80;;;;;;6338188;22;20006;-79
2022/08/05 00:34:22;;;;;;;3.97;1.92;;;30.40;58.80;;;;;;6337042;22;19994;-79
2022/08/05 00:36:48;;;;;;;4.85;2.20;;;30.40;58.80;;;;;;6337008;22;20057;-79
2022/08/05 00:39:14;;;;;;;2.35;1.70;;;30.40;58.80;;;;;;6309013;22;19999;-80
2022/08/05 00:41:43;;;;;;;2.53;1.48;;;30.40;59.10;;;;;;6336733;22;20002;-79
2022/08/05 00:44:09;;;;;;;2.72;1.90;;;30.30;59.10;;;;;;6337008;22;20009;-79
2022/08/05 00:46:35;;;;;;;1.92;1.75;;;30.30;59.30;;;;;;6337188;22;20387;-79
2022/08/05 00:49:00;;;;;;;2.45;1.65;;;30.30;59.30;;;;;;6336774;22;19999;-79
2022/08/05 00:51:26;;;;;;;3.13;1.60;;;30.40;59.50;;;;;;6337762;22;20305;-80
2022/08/05 00:53:52;;;;;;;5.00;1.77;;;30.30;59.40;;;;;;6336126;22;20083;-80
2022/08/05 00:56:17;;;;;;;4.07;1.38;;;30.30;59.60;;;;;;6308843;22;20013;-80
2022/08/05 00:58:44;;;;;;;2.70;1.58;;;30.30;59.70;;;;;;6336084;22;19999;-79
2022/08/05 01:01:12;;;;;;;1.85;1.38;;;30.30;59.50;;;;;;6336691;22;20003;-79
2022/08/05 01:03:38;;;;;;;1.30;1.15;;;30.30;59.40;;;;;;6337018;22;20082;-78
2022/08/05 01:06:05;;;;;;;2.17;1.40;;;30.30;59.30;;;;;;6336179;22;20003;-78
2022/08/05 01:08:31;;;;;;;3.50;1.42;;;30.20;59.20;;;;;;6335482;22;20002;-78
2022/08/05 01:11:01;;;;;;;2.50;1.48;;;30.20;59.30;;;;;;6337247;22;20010;-79
2022/08/05 01:13:47;;;;;;;1.98;1.30;;;30.20;59.40;;;;;;6336905;22;19999;-80
2022/08/05 01:16:44;;;;;;;2.75;1.58;;;30.20;59.80;;;;;;6336858;22;20022;-78
2022/08/05 01:19:35;;;;;;;5.85;1.77;;;30.10;59.70;;;;;;6335775;22;20301;-78
2022/08/05 01:22:17;;;;;;;3.05;1.50;;;30.10;60.10;;;;;;6337154;22;20443;-79
2022/08/05 01:24:48;;;;;;;4.85;1.63;;;30.10;60.60;;;;;;6336732;22;20002;-80
2022/08/05 01:27:35;;;;;;;6.22;1.45;;;30.10;60.80;;;;;;6336446;22;20007;-80
2022/08/05 01:30:04;;;;;;;2.20;1.40;;;30.10;61.10;;;;;;6336081;22;20003;-79
2022/08/05 01:32:33;;;;;;;1.88;1.38;;;30.10;61.40;;;;;;6336441;22;20006;-79
2022/08/05 01:35:10;;;;;;;1.30;1.20;;;30.10;61.80;;;;;;6336616;22;20534;-80
2022/08/05 01:37:53;;;;;;;2.25;1.35;;;30.10;62.30;;;;;;6336654;22;19994;-80
2022/08/05 01:40:22;;;;;;;2.38;1.23;;;30.00;62.80;;;;;;6308287;22;20350;-80
2022/08/05 01:42:50;;;;;;;1.58;1.30;;;29.90;62.20;;;;;;6336498;22;20315;-80
2022/08/05 01:45:19;;;;;;;2.47;1.63;;;29.90;62.50;;;;;;6335806;22;20082;-80
2022/08/05 01:47:47;;;;;;;1.92;1.38;;;29.90;62.60;;;;;;6336181;22;20003;-79
2022/08/05 01:50:27;;;;;;;2.53;1.20;;;29.80;62.80;;;;;;6336138;22;20010;-79
2022/08/05 01:52:54;;;;;;;1.90;1.27;;;29.80;63.10;;;;;;6336425;22;20003;-79
2022/08/05 01:55:23;;;;;;;1.40;1.30;;;29.80;63.40;;;;;;6335786;22;20035;-79
2022/08/05 01:57:51;;;;;;;2.30;1.52;;;29.80;63.60;;;;;;6336565;22;19995;-80
2022/08/05 02:00:18;;;;;;;1.20;1.10;;;29.80;64.00;;;;;;6335874;22;20003;-80
2022/08/05 02:02:52;;;;;;;1.50;1.33;;;29.70;64.40;;;;;;6336228;22;19999;-80
2022/08/05 02:05:21;;;;;;;3.85;1.80;;;29.70;64.70;;;;;;6336289;22;20007;-80
2022/08/05 02:07:47;;;;;;;1.38;1.27;;;29.60;65.60;;;;;;6335345;22;20007;-80
2022/08/05 02:10:13;;;;;;;1.83;1.55;;;29.50;65.40;;;;;;6335380;22;20033;-81
2022/08/05 02:13:00;;;;;;;1.48;1.15;;;29.50;65.70;;;;;;6335072;22;20025;-80
2022/08/05 02:15:34;;;;;;;1.52;1.42;;;29.50;65.70;;;;;;6335367;22;20001;-80
2022/08/05 02:18:17;;;;;;;1.38;1.25;;;29.50;65.90;;;;;;6336649;22;20056;-80
2022/08/05 02:20:51;;;;;;;2.20;1.40;;;29.50;66.10;;;;;;6337990;22;19999;-79
2022/08/05 02:23:21;;;;;;;2.17;1.52;;;29.60;66.20;;;;;;6338546;22;20030;-80
2022/08/05 02:25:49;;;;;;;2.45;1.25;;;29.50;66.00;;;;;;6337837;22;20006;-79
2022/08/05 02:28:21;;;;;;;3.13;1.30;;;29.50;66.10;;;;;;6337962;22;20065;-78
2022/08/05 02:30:53;;;;;;;4.28;1.50;;;29.40;66.00;;;;;;6338168;22;20055;-79
2022/08/05 02:33:20;;;;;;;1.95;1.38;;;29.30;66.20;;;;;;6338207;22;19999;-78
2022/08/05 02:35:45;;;;;;;1.85;1.50;;;29.40;66.50;;;;;;6338160;22;20003;-78
2022/08/05 02:38:12;;;;;;;2.00;1.50;;;29.30;66.40;;;;;;6337864;22;20449;-78
2022/08/05 02:40:41;;;;;;;2.00;1.48;;;29.30;66.60;;;;;;6337805;22;20009;-77
2022/08/05 02:43:10;;;;;;;1.88;1.65;;;29.30;66.60;;;;;;6336938;22;20531;-76
2022/08/05 02:45:37;;;;;;;1.88;1.67;;;29.30;66.70;;;;;;6336747;22;20077;-78
2022/08/05 02:48:04;;;;;;;1.48;1.30;;;29.30;67.00;;;;;;6336394;22;20007;-78
2022/08/05 02:50:30;;;;;;;2.95;1.73;;;29.30;67.10;;;;;;6338017;22;20098;-77
2022/08/05 02:52:57;;;;;;;2.78;1.75;;;29.30;67.10;;;;;;6337758;22;20006;-77
2022/08/05 02:55:23;;;;;;;3.95;1.60;;;29.20;67.10;;;;;;6337700;22;20003;-77
2022/08/05 02:57:49;;;;;;;3.42;1.70;;;29.20;66.90;;;;;;6337498;22;19995;-77
2022/08/05 03:00:16;;;;;;;3.95;1.70;;;29.20;66.90;;;;;;6337154;22;20002;-78
2022/08/05 03:02:44;;;;;;;2.53;1.65;;;29.10;66.90;;;;;;6337300;22;20143;-78
2022/08/05 03:05:12;;;;;;;5.80;1.77;;;29.00;66.80;;;;;;6337618;22;20029;-78
2022/08/05 03:07:39;;;;;;;1.48;1.38;;;29.00;66.90;;;;;;6336851;22;20007;-78
2022/08/05 03:10:07;;;;;;;2.38;1.70;;;29.00;67.00;;;;;;6310032;22;20314;-79
2022/08/05 03:12:36;;;;;;;3.10;1.98;;;29.00;66.90;;;;;;6337570;22;20076;-79
2022/08/05 03:15:03;;;;;;;;;;;29.00;67.00;;;;;;6338097;22;19995;-78
2022/08/05 03:17:29;;;;;;;3.20;1.52;;;28.90;67.20;;;;;;6336501;22;20240;-76
2022/08/05 03:19:54;;;;;;;1.90;1.65;;;28.90;66.90;;;;;;6337317;22;20003;-78
2022/08/05 03:22:20;;;;;;;2.90;1.65;;;28.80;66.90;;;;;;6338194;22;20005;-78
2022/08/05 03:24:48;;;;;;;7.70;2.63;;;28.80;67.00;;;;;;6337387;22;20003;-77
2022/08/05 03:27:15;;;;;;;3.75;2.30;;;28.60;67.30;;;;;;6309073;22;20006;-78
2022/08/05 03:29:41;;;;;;;2.40;2.20;;;28.30;68.00;;;;;;6310350;22;20029;-79
2022/08/05 03:32:10;;;;;;;3.67;2.55;;;28.20;68.10;;;;;;6338962;22;20404;-78
2022/08/05 03:34:36;;;;;;;3.95;2.55;;;28.20;68.30;;;;;;6337792;22;20055;-78
2022/08/05 03:37:04;;;;;;;3.83;2.20;;;28.20;68.30;;;;;;6337204;22;19998;-79
2022/08/05 03:39:30;;;;;;;3.00;2.38;;;28.20;68.00;;;;;;6336970;22;20076;-78
2022/08/05 03:41:56;;;;;;;3.75;2.10;;;28.20;68.10;;;;;;6309415;22;20440;-78
2022/08/05 03:44:23;;;;;;;2.88;2.10;;;28.20;68.00;;;;;;6337327;22;20003;-79
2022/08/05 03:46:49;;;;;;;3.33;2.10;;;28.20;68.30;;;;;;6337013;22;20003;-78
2022/08/05 03:49:15;;;;;;;4.97;2.70;;;28.30;67.80;;;;;;6337315;22;20328;-78
2022/08/05 03:51:59;;;;;;;5.50;2.83;;;28.30;67.80;;;;;;6337201;22;20010;-79
2022/08/05 03:54:34;;;;;;;2.55;2.20;;;28.30;67.70;;;;;;6337028;22;20086;-78
2022/08/05 03:57:02;;;;;;;3.10;2.42;;;28.20;67.60;;;;;;6336914;22;20081;-79
2022/08/05 03:59:36;;;;;;;7.70;2.80;;;28.30;67.60;;;;;;6309296;22;20173;-79
2022/08/05 04:02:03;;;;;;;4.65;2.70;;;28.30;67.50;;;;;;6337465;22;20005;-79
2022/08/05 04:04:31;;;;;;;6.53;2.97;;;28.30;67.40;;;;;;6336603;22;20003;-79
2022/08/05 04:06:58;;;;;;;3.55;2.40;;;28.30;67.40;;;;;;6336457;22;20029;-79
2022/08/05 04:09:24;;;;;;;2.72;2.20;;;28.30;67.30;;;;;;6336626;22;20003;-79
2022/08/05 04:11:50;;;;;;;6.60;3.08;;;28.30;67.30;;;;;;6336904;22;20329;-79
2022/08/05 04:14:16;;;;;;;4.75;2.70;;;28.30;67.50;;;;;;6336468;22;20002;-78
2022/08/05 04:16:43;;;;;;;4.28;2.50;;;28.20;67.50;;;;;;6336335;22;19998;-78
2022/08/05 04:19:12;;;;;;;3.42;2.85;;;28.20;67.70;;;;;;6336992;22;20073;-78
2022/08/05 04:21:38;;;;;;;4.03;3.00;;;28.20;67.70;;;;;;6337535;22;19999;-78
2022/08/05 04:24:04;;;;;;;4.22;2.42;;;28.20;67.70;;;;;;6309303;22;20005;-78
2022/08/05 04:26:30;;;;;;;4.65;2.65;;;28.20;67.60;;;;;;6308341;22;20034;-78
2022/08/05 04:28:56;;;;;;;4.50;3.15;;;28.20;67.70;;;;;;6336972;22;19994;-78
2022/08/05 04:31:21;;;;;;;5.10;2.95;;;28.20;67.80;;;;;;6338597;22;19994;-82
2022/08/05 04:33:48;;;;;;;4.15;2.70;;;28.20;67.70;;;;;;6334759;22;20006;-81
2022/08/05 04:36:14;;;;;;;4.53;2.85;;;28.10;67.90;;;;;;6336967;22;20078;-80
2022/08/05 04:38:41;;;;;;;4.82;3.20;;;28.10;67.70;;;;;;6337038;22;20019;-78
2022/08/05 04:41:07;;;;;;;2.58;2.38;;;28.10;67.80;;;;;;6336673;22;19999;-79
2022/08/05 04:43:33;;;;;;;5.38;2.95;;;28.00;67.80;;;;;;6336257;22;20081;-79
2022/08/05 04:45:58;;;;;;;5.82;3.13;;;27.90;67.70;;;;;;6336662;22;20002;-81
2022/08/05 04:48:24;;;;;;;5.95;2.65;;;27.90;67.70;;;;;;6336613;22;20010;-81
2022/08/05 04:50:50;;;;;;;4.55;2.60;;;28.00;67.60;;;;;;6337178;22;20077;-81
2022/08/05 04:53:17;;;;;;;3.83;2.45;;;28.00;67.50;;;;;;6336188;22;20019;-80
2022/08/05 04:55:44;;;;;;;5.03;2.58;;;28.10;67.40;;;;;;6336414;22;19995;-81
2022/08/05 04:58:13;;;;;;;2.45;2.00;;;28.20;67.20;;;;;;6333446;22;20005;-81
2022/08/05 05:00:40;;;;;;;6.83;3.43;;;28.20;66.80;;;;;;6308118;22;20003;-82
2022/08/05 05:03:07;;;;;;;4.82;3.28;;;28.20;66.50;;;;;;6307486;22;20225;-81
2022/08/05 05:05:33;;;;;;;3.13;2.83;;;28.10;66.80;;;;;;6336697;22;20077;-78
2022/08/05 05:08:01;;;;;;;3.15;2.10;;;28.10;66.70;;;;;;6334967;22;19999;-79
2022/08/05 05:10:27;;;;;;;4.13;2.40;;;28.10;67.10;;;;;;6335627;22;20363;-77
2022/08/05 05:12:53;;;;;;;4.82;2.83;;;28.20;67.20;;;;;;6336753;22;20003;-78
2022/08/05 05:15:18;;;;;;;5.07;2.72;;;28.20;67.00;;;;;;6308201;22;20030;-76
2022/08/05 05:17:44;;;;;;;2.50;2.28;;;28.20;66.80;;;;;;6336637;22;20474;-74
2022/08/05 05:20:11;;;;;;;4.03;2.10;;;28.30;66.90;;;;;;6336939;22;19999;-76
2022/08/05 05:22:38;;;;;;;4.88;3.00;;;28.40;67.20;;;;;;6336678;22;20037;-77
2022/08/05 05:25:04;;;;;;;3.83;2.47;;;28.40;66.80;;;;;;6306318;22;20463;-74
2022/08/05 05:27:32;;;;;;;4.40;2.97;;;28.50;66.50;;;;;;6333165;22;20451;-74
2022/08/05 05:29:58;;;;;;;3.78;2.60;;;28.50;66.60;;;;;;6333853;22;20025;-79
2022/08/05 05:32:24;;;;;;;5.28;3.47;;;28.50;66.50;;;;;;6337951;22;20413;-79
2022/08/05 05:34:50;;;;;;;3.15;2.85;;;28.40;66.30;;;;;;6338112;22;20066;-76
2022/08/05 05:37:16;;;;;;;4.78;2.92;;;28.40;66.40;;;;;;6338491;22;20070;-76
2022/08/05 05:39:42;;;;;;;4.32;2.40;;;28.40;66.30;;;;;;6338110;22;20072;-77
2022/08/05 05:42:07;;;;;;;2.65;2.38;;;28.40;66.70;;;;;;6336374;22;20436;-77
2022/08/05 05:44:33;;;;;;;6.10;2.60;;;28.50;66.70;;;;;;6337103;22;20401;-82
2022/08/05 05:46:59;;;;;;;4.88;2.78;;;28.60;66.60;;;;;;6336755;22;20010;-82
2022/08/05 05:49:25;;;;;;;2.88;2.28;;;28.60;66.50;;;;;;6336937;22;20010;-82
2022/08/05 05:51:51;;;;;;;2.55;2.17;;;28.60;66.30;;;;;;6335805;22;20003;-82
2022/08/05 05:54:17;;;;;;;4.68;3.35;;;28.60;66.10;;;;;;6336401;22;20010;-82
2022/08/05 05:56:43;;;;;;;4.03;2.28;;;28.60;65.70;;;;;;6337831;22;20002;-82
2022/08/05 05:59:09;;;;;;;2.60;2.33;;;28.60;65.90;;;;;;6308877;22;19999;-81
2022/08/05 06:01:38;;;;;;;3.60;2.75;;;28.60;65.90;;;;;;6336383;22;20006;-82
2022/08/05 06:04:05;;;;;;;10.88;3.75;;;28.50;65.80;;;;;;6337863;22;20003;-81
2022/08/05 06:06:30;;;;;;;4.80;2.53;;;28.50;65.80;;;;;;6337338;22;19999;-82
2022/08/05 06:08:56;;;;;;;6.82;3.55;;;28.50;65.90;;;;;;6337312;22;20003;-84
2022/08/05 06:11:22;;;;;;;4.63;3.08;;;28.40;65.80;;;;;;6309904;22;20063;-83
2022/08/05 06:13:47;;;;;;;5.00;2.97;;;28.40;65.90;;;;;;6331993;22;20028;-84
2022/08/05 06:16:13;;;;;;;2.40;1.95;;;28.40;65.60;;;;;;6335589;22;20072;-81
2022/08/05 06:18:39;;;;;;;6.22;2.90;;;28.50;65.50;;;;;;6337377;22;20046;-81
2022/08/05 06:21:04;;;;;;;2.88;2.38;;;28.50;65.60;;;;;;6335591;22;20341;-81
2022/08/05 06:23:30;;;;;;;6.80;2.60;;;28.50;65.30;;;;;;6336993;22;20082;-80
2022/08/05 06:25:56;;;;;;;3.53;2.03;;;28.60;65.10;;;;;;6335672;22;20007;-81
2022/08/05 06:28:22;;;;;;;2.65;1.98;;;28.70;65.10;;;;;;6337151;22;20093;-81
2022/08/05 06:30:48;;;;;;;3.88;2.15;;;28.70;65.40;;;;;;6334729;22;20002;-76
2022/08/05 06:33:14;;;;;;;2.30;1.67;;;28.70;65.10;;;;;;6334843;22;20439;-76
2022/08/05 06:35:40;;;;;;;4.63;2.35;;;28.90;65.30;;;;;;6301789;22;20085;-76
2022/08/05 06:38:05;;;;;;;3.75;2.28;;;28.90;65.70;;;;;;6336416;22;20325;-76
2022/08/05 06:40:31;;;;;;;6.28;2.60;;;29.00;65.10;;;;;;6335370;22;20069;-79
2022/08/05 06:42:57;;;;;;;2.95;2.10;;;29.00;64.80;;;;;;6334580;22;20488;-76
2022/08/05 06:45:22;;;;;;;2.47;1.95;;;29.00;64.70;;;;;;6335998;22;20006;-76
2022/08/05 06:47:48;;;;;;;3.72;2.38;;;29.10;65.20;;;;;;6335955;22;20025;-74
2022/08/05 06:50:14;;;;;;;4.22;2.67;;;29.20;65.80;;;;;;6336563;22;20283;-77
2022/08/05 06:52:39;;;;;;;4.57;2.10;;;29.20;65.60;;;;;;6336107;22;20465;-76
2022/08/05 06:55:11;;;;;;;2.85;2.00;;;29.20;64.30;;;;;;6336703;22;20015;-77
2022/08/05 06:57:37;;;;;;;3.22;2.08;;;29.20;64.20;;;;;;6308119;22;20550;-76
2022/08/05 07:00:04;;;;;;;4.15;1.92;;;29.30;64.20;;;;;;6337637;22;20019;-76
2022/08/05 07:02:30;;;;;;;3.45;2.20;;;29.30;64.40;;;;;;6335848;22;20064;-76
2022/08/05 07:04:55;;;;;;;4.20;2.20;;;29.40;64.30;;;;;;6337098;22;20010;-77
2022/08/05 07:07:21;;;;;;;7.32;1.85;;;29.50;64.00;;;;;;6307798;22;20006;-77
2022/08/05 07:09:49;;;;;;;4.20;1.83;;;29.50;62.50;;;;;;6336750;22;19998;-77
2022/08/05 07:16:48;;;;;;;3.20;2.03;;;29.50;63.10;;;;;;6309049;22;20011;-77
2022/08/05 07:17:45;;;;;;;3.70;2.10;;;29.60;61.90;;;;;;6335660;22;20010;-78
2022/08/05 07:20:16;;;;;;;4.72;2.38;;;29.60;61.40;;;;;;6336297;22;19995;-77
2022/08/05 07:22:42;;;;;;;8.60;2.60;;;29.60;61.40;;;;;;6336214;22;20051;-77
2022/08/05 07:25:11;;;;;;;4.18;2.10;;;29.70;61.50;;;;;;6308366;22;20414;-77
2022/08/05 07:27:37;;;;;;;5.43;2.38;;;29.70;61.60;;;;;;6336146;22;20003;-76
2022/08/05 07:30:03;;;;;;;5.20;2.05;;;29.80;61.60;;;;;;6334992;22;20006;-78
2022/08/05 07:32:34;;;;;;;6.22;1.60;;;29.80;61.50;;;;;;6334307;22;20034;-78
2022/08/05 07:35:00;;;;;;;3.47;2.75;;;29.90;61.20;;;;;;6336253;22;20006;-78
2022/08/05 07:37:26;;;;;;;3.00;2.13;;;29.90;60.20;;;;;;6335984;22;20038;-76
2022/08/05 07:39:51;;;;;;;2.13;1.77;;;29.90;60.70;;;;;;6336267;22;20070;-77
2022/08/05 07:42:17;;;;;;;3.40;1.85;;;30.00;60.40;;;;;;6307673;22;20003;-82
2022/08/05 07:44:43;;;;;;;3.75;1.65;;;30.10;60.10;;;;;;6308726;22;20032;-78
2022/08/05 07:47:08;;;;;;;3.08;2.42;;;30.10;59.80;;;;;;6335969;22;20026;-77
2022/08/05 07:49:34;;;;;;;5.60;2.00;;;30.10;59.50;;;;;;6306666;22;20014;-77
2022/08/05 07:52:00;;;;;;;5.07;1.80;;;30.20;59.40;;;;;;6335016;22;20026;-79
2022/08/05 07:54:41;;;;;;;2.35;1.48;;;30.20;59.40;;;;;;6336028;22;20038;-79
2022/08/05 07:57:06;;;;;;;6.55;1.55;;;30.30;59.50;;;;;;6336254;22;20476;-79
2022/08/05 07:59:32;;;;;;;2.72;2.20;;;30.40;59.50;;;;;;6335549;22;20025;-77
2022/08/05 08:01:58;;;;;;;2.85;2.33;;;30.40;59.30;;;;;;6336835;22;20068;-78
2022/08/05 08:04:24;;;;;;;1.70;1.50;;;30.50;59.40;;;;;;6337562;22;19995;-78
2022/08/05 08:06:49;;;;;;;2.50;2.30;;;30.50;59.50;;;;;;6337964;22;20005;-78
2022/08/05 08:09:15;;;;;;;5.03;1.63;;;30.60;58.10;;;;;;6335895;22;19999;-78
2022/08/05 08:11:41;;;;;;;3.85;2.17;;;30.70;58.90;;;;;;6336804;22;19995;-78
2022/08/05 08:14:06;;;;;;;5.75;2.47;;;30.70;58.70;;;;;;6336745;22;20333;-78
2022/08/05 08:16:32;;;;;;;6.00;2.50;;;30.80;57.70;;;;;;6335176;22;20034;-79
2022/08/05 08:18:58;;;;;;;4.50;1.90;;;30.80;57.60;;;;;;6334900;22;20005;-78
2022/08/05 08:21:23;;;;;;;4.72;2.17;;;30.90;57.70;;;;;;6335934;22;20352;-78
2022/08/05 08:23:50;;;;;;;2.17;1.70;;;30.90;57.30;;;;;;6334522;22;20046;-78
2022/08/05 08:26:15;;;;;;;2.20;1.90;;;31.00;57.60;;;;;;6334612;22;19999;-78
2022/08/05 08:28:41;;;;;;;2.97;1.88;;;31.10;58.20;;;;;;6334563;22;20051;-78
2022/08/05 08:31:07;;;;;;;2.67;1.40;;;31.20;57.20;;;;;;6335210;22;20003;-78
2022/08/05 08:33:33;;;;;;;6.38;2.15;;;31.30;57.20;;;;;;6335209;22;20076;-79
2022/08/05 08:35:59;;;;;;;6.70;1.58;;;31.40;56.00;;;;;;6336701;22;20409;-76
2022/08/05 08:38:25;;;;;;;2.47;1.40;;;31.50;56.10;;;;;;6335767;22;19995;-76
2022/08/05 08:40:51;;;;;;;2.28;1.30;;;31.50;56.00;;;;;;6335018;22;19994;-81
2022/08/05 08:43:18;;;;;;;4.53;1.90;;;31.60;55.90;;;;;;6335370;22;20007;-76
2022/08/05 08:45:45;;;;;;;3.70;1.45;;;31.70;55.50;;;;;;6336422;22;20074;-76
2022/08/05 08:48:13;;;;;;;3.42;1.50;;;31.80;55.70;;;;;;6335789;22;20003;-76
2022/08/05 08:50:41;;;;;;;2.45;1.98;;;31.90;56.00;;;;;;6334089;22;20026;-76
2022/08/05 08:53:15;;;;;;;5.95;1.88;;;32.00;55.50;;;;;;6330295;22;20034;-80
2022/08/05 08:55:41;;;;;;;4.10;1.75;;;32.10;54.10;;;;;;6273465;22;20027;-81
2022/08/05 08:58:09;;;;;;;3.35;1.88;;;32.20;54.20;;;;;;6273727;22;20007;-81
2022/08/05 09:00:35;;;;;;;2.92;1.80;;;32.30;53.40;;;;;;6272543;22;20023;-81
2022/08/05 09:03:03;;;;;;;1.45;1.35;;;32.40;52.20;;;;;;6274027;22;20003;-82
2022/08/05 09:05:29;;;;;;;7.78;2.00;;;32.40;52.60;;;;;;6273142;22;20007;-82
2022/08/05 09:07:56;;;;;;;5.95;1.58;;;32.50;50.60;;;;;;6273826;22;20028;-82
2022/08/05 09:10:22;;;;;;;2.55;1.65;;;32.50;51.70;;;;;;6274278;22;20004;-82
2022/08/05 09:12:48;;;;;;;4.40;1.33;;;32.60;52.20;;;;;;6246309;22;20007;-82
2022/08/05 09:15:14;;;;;;;1.63;1.50;;;32.70;52.30;;;;;;6274243;22;20467;-82
2022/08/05 09:17:40;;;;;;;1.75;1.58;;;32.70;52.00;;;;;;6274704;22;20000;-82
2022/08/05 09:20:07;;;;;;;2.45;1.80;;;32.80;52.50;;;;;;6273579;22;20114;-80
2022/08/05 09:23:13;;;;;;;3.33;1.90;;;32.90;52.80;;;;;;6273548;22;20004;-80
2022/08/05 09:25:41;;;;;;;4.45;1.92;;;33.00;52.90;;;;;;6246727;22;20329;-82
2022/08/05 09:28:23;;;;;;;5.35;2.40;;;33.10;52.80;;;;;;6272649;22;20027;-82
2022/08/05 09:30:56;;;;;;;5.38;2.78;;;33.20;52.90;;;;;;6273455;22;20425;-80
2022/08/05 09:33:23;;;;;;;11.00;3.83;;;33.30;53.50;;;;;;6273645;22;20000;-74
2022/08/05 09:35:55;;;;;;;6.82;3.30;;;33.40;53.90;;;;;;6273953;22;20003;-74
2022/08/05 09:38:20;;;;;;;6.88;3.00;;;33.60;54.10;;;;;;6273410;22;20180;-74
2022/08/05 09:40:46;;;;;;;9.32;2.85;;;33.70;53.50;;;;;;6273228;22;19999;-74
2022/08/05 09:43:30;;;;;;;4.40;2.88;;;33.80;53.50;;;;;;6246194;22;20008;-73
2022/08/05 09:45:55;;;;;;;6.85;3.38;;;33.90;53.60;;;;;;6274435;22;20059;-73
2022/08/05 09:48:32;;;;;;;3.42;2.85;;;34.00;53.70;;;;;;6271989;22;20004;-73
2022/08/05 09:51:05;;;;;;;6.15;3.15;;;34.10;53.80;;;;;;6272492;22;20069;-75
2022/08/05 09:53:46;;;;;;;5.82;3.42;;;34.20;53.60;;;;;;6272218;22;20974;-73
2022/08/05 09:56:12;;;;;;;4.97;2.90;;;34.30;53.40;;;;;;6273774;22;20004;-74
2022/08/05 09:58:38;;;;;;;9.70;3.05;;;34.40;53.40;;;;;;6273458;22;20026;-74
2022/08/05 10:01:05;;;;;;;7.88;3.35;;;34.50;53.00;;;;;;6273413;22;20421;-74
2022/08/05 10:03:31;;;;;;;4.68;3.30;;;34.50;53.10;;;;;;6272396;22;20007;-74
2022/08/05 10:06:03;;;;;;;7.22;3.58;;;34.60;53.10;;;;;;6247179;22;20014;-73
2022/08/05 10:08:29;;;;;;;7.85;3.20;;;34.80;53.10;;;;;;6274399;22;20010;-74
2022/08/05 10:10:55;;;;;;;8.85;2.78;;;34.80;53.20;;;;;;6273957;22;20004;-74
2022/08/05 10:13:31;;;;;;;7.63;2.67;;;34.90;53.00;;;;;;6274389;22;20078;-74
2022/08/05 10:15:59;;;;;;;5.63;2.88;;;35.10;52.60;;;;;;6274140;22;19996;-74
2022/08/05 10:18:26;;;;;;;4.15;2.08;;;35.10;52.20;;;;;;6274050;22;20044;-74
2022/08/05 10:21:03;;;;;;;2.45;2.25;;;35.20;52.50;;;;;;6273596;22;19995;-74
2022/08/05 10:23:35;;;;;;;6.53;2.55;;;35.30;52.60;;;;;;6272985;22;20437;-74
2022/08/05 10:26:05;;;;;;;4.18;3.28;;;35.40;52.50;;;;;;6274305;22;20004;-74
2022/08/05 10:28:32;;;;;;;3.55;2.70;;;35.50;52.20;;;;;;6273629;22;20003;-74
2022/08/05 10:30:59;;;;;;;3.50;2.35;;;35.60;52.40;;;;;;6273299;22;20318;-74
2022/08/05 10:33:28;;;;;;;5.40;2.80;;;35.70;52.20;;;;;;6273728;22;20287;-80
2022/08/05 10:35:54;;;;;;;5.43;2.75;;;35.80;51.90;;;;;;6245972;22;20004;-81
2022/08/05 10:38:22;;;;;;;3.67;2.70;;;35.90;51.90;;;;;;6273960;22;20000;-81
2022/08/05 10:40:48;;;;;;;2.78;2.10;;;36.00;52.00;;;;;;6275818;22;20000;-80
2022/08/05 10:43:43;;;;;;;3.58;2.30;;;36.10;52.10;;;;;;6275148;22;20029;-81
2022/08/05 10:46:12;;;;;;;6.50;2.40;;;36.20;52.20;;;;;;6275535;22;20007;-83
2022/08/05 10:48:45;;;;;;;2.58;1.95;;;36.30;52.10;;;;;;6275249;22;20031;-82
2022/08/05 10:51:12;;;;;;;5.50;2.60;;;36.40;51.90;;;;;;6274552;22;20049;-81
2022/08/05 10:53:50;;;;;;;2.95;2.30;;;36.50;52.00;;;;;;6276036;22;20414;-80
2022/08/05 10:56:23;;;;;;;3.53;2.70;;;36.60;51.90;;;;;;6275162;22;19995;-81
2022/08/05 10:58:52;;;;;;;4.18;2.55;;;36.80;52.10;;;;;;6275135;22;19996;-81
2022/08/05 11:01:32;;;;;;;3.28;2.28;;;36.90;52.00;;;;;;6275698;22;19996;-80
2022/08/05 11:04:10;;;;;;;6.45;2.92;;;37.00;51.60;;;;;;6275550;22;20000;-81
2022/08/05 11:07:00;;;;;;;2.88;2.33;;;37.20;51.60;;;;;;6275191;22;20011;-81
2022/08/05 11:09:43;;;;;;;5.07;2.28;;;37.20;50.90;;;;;;6260968;22;20003;-81
2022/08/05 11:12:38;;;;;;;4.15;2.30;;;37.40;50.80;;;;;;6273087;22;20011;-81
2022/08/05 11:15:05;;;;;;;2.88;2.15;;;37.60;50.70;;;;;;6245790;22;20019;-82
2022/08/05 11:17:37;;;;;;;2.78;2.25;;;37.70;50.40;;;;;;6247041;22;20004;-82
2022/08/05 11:20:08;;;;;;;5.28;2.40;;;37.80;49.70;;;;;;6274505;22;20443;-76
2022/08/05 11:22:44;;;;;;;2.85;2.30;;;38.00;48.60;;;;;;6273675;22;20011;-76
2022/08/05 11:25:36;;;;;;;6.63;2.85;;;38.10;48.30;;;;;;6273988;22;20004;-77
2022/08/05 11:28:11;;;;;;;4.28;2.67;;;38.30;48.30;;;;;;6273651;22;20004;-81
2022/08/05 11:30:55;;;;;;;4.43;2.15;;;38.40;47.80;;;;;;6245119;22;20061;-81
2022/08/05 11:33:46;;;;;;;4.35;2.55;;;38.60;47.30;;;;;;6272174;22;20336;-80
2022/08/05 11:36:17;;;;;;;2.83;1.95;;;38.90;47.30;;;;;;6273611;22;20038;-76
2022/08/05 11:38:43;;;;;;;3.05;2.35;;;39.10;47.00;;;;;;6273385;22;20046;-81
2022/08/05 11:41:25;;;;;;;2.55;2.00;;;39.20;46.70;;;;;;6273367;22;20000;-81
2022/08/05 11:44:17;;;;;;;2.35;2.03;;;39.50;46.00;;;;;;6273539;22;20322;-81
2022/08/05 11:46:48;;;;;;;3.83;2.53;;;39.70;45.20;;;;;;6247321;22;20035;-75
2022/08/05 11:49:16;;;;;;;2.15;1.70;;;40.10;45.10;;;;;;6273818;22;20382;-76
2022/08/05 11:51:44;;;;;;;4.65;2.60;;;40.30;44.30;;;;;;6273451;22;20003;-76
2022/08/05 11:54:28;;;;;;;4.28;2.67;;;40.50;44.20;;;;;;6273734;22;20018;-76
2022/08/05 11:56:55;;;;;;;4.18;2.10;;;40.70;44.10;;;;;;6274923;22;20405;-76
2022/08/05 11:59:24;;;;;;;3.63;1.60;;;41.00;44.10;;;;;;6274703;22;20002;-76
2022/08/05 12:02:00;;;;;;;2.83;1.40;;;41.20;43.40;;;;;;6273069;22;19995;-76
2022/08/05 12:04:28;;;;;;;4.35;1.60;;;41.20;42.20;;;;;;6273929;22;20068;-75
2022/08/05 12:06:58;;;;;;;3.63;1.45;;;41.50;42.40;;;;;;6275129;22;20473;-76
2022/08/05 12:09:25;;;;;;;3.88;2.20;;;41.60;42.00;;;;;;6274553;22;20083;-76
2022/08/05 12:11:51;;;;;;;2.05;1.60;;;41.70;42.00;;;;;;6273948;22;19996;-76
2022/08/05 12:14:17;;;;;;;2.17;1.50;;;41.70;41.50;;;;;;6274082;22;20014;-76
2022/08/05 12:16:46;;;;;;;1.85;1.48;;;41.90;41.60;;;;;;6274867;22;20372;-77
2022/08/05 12:19:14;;;;;;;7.68;2.00;;;42.00;41.30;;;;;;6247263;22;20078;-75
2022/08/05 12:21:49;;;;;;;7.88;1.67;;;42.20;41.00;;;;;;6273870;22;20310;-76
2022/08/05 12:24:21;;;;;;;2.95;2.15;;;42.10;39.50;;;;;;6274304;22;19999;-76
2022/08/05 12:26:49;;;;;;;2.40;1.42;;;42.10;40.70;;;;;;6274301;22;20003;-76
2022/08/05 12:29:16;;;;;;;2.20;1.70;;;42.00;40.40;;;;;;6273710;22;20057;-76
2022/08/05 12:31:48;;;;;;;4.28;1.60;;;42.10;40.60;;;;;;6247446;22;20238;-76
2022/08/05 12:34:16;;;;;;;2.72;1.60;;;42.20;41.10;;;;;;6272754;22;20089;-75
2022/08/05 12:36:44;;;;;;;3.55;1.55;;;42.10;41.30;;;;;;6274100;22;20000;-79
2022/08/05 12:39:10;;;;;;;6.40;1.50;;;42.20;41.10;;;;;;6246146;22;20669;-82
2022/08/05 12:41:39;;;;;;;2.47;1.58;;;42.20;40.20;;;;;;6273616;22;20000;-82
2022/08/05 12:44:11;;;;;;;1.48;1.05;;;42.20;39.90;;;;;;6247097;22;20440;-83
2022/08/05 12:46:39;;;;;;;2.80;1.50;;;42.20;39.70;;;;;;6274409;22;20110;-83
2022/08/05 12:49:10;;;;;;;2.05;1.38;;;42.20;36.10;;;;;;6274195;22;20034;-83
2022/08/05 12:51:49;;;;;;;2.03;1.63;;;42.20;37.80;;;;;;6247095;22;20390;-77
2022/08/05 12:54:25;;;;;;;1.42;1.23;;;42.20;36.90;;;;;;6273781;22;20018;-77
2022/08/05 12:56:56;;;;;;;2.28;1.20;;;42.20;36.60;;;;;;6246984;22;20000;-77
2022/08/05 12:59:24;;;;;;;1.33;1.23;;;42.10;37.30;;;;;;6273697;22;20011;-78